createdAt,value
2022-08-14T00:02:05.176Z,22.74
2022-08-14T00:04:41.975Z,22.71
2022-08-14T00:07:14.166Z,22.65
2022-08-14T00:10:01.843Z,22.65
2022-08-14T00:12:39.720Z,22.60
2022-08-14T00:15:43.687Z,22.53
2022-08-14T00:19:05.296Z,22.46
2022-08-14T00:21:04.868Z,22.41
2022-08-14T00:23:39.505Z,22.38
2022-08-14T00:26:08.290Z,22.34
2022-08-14T00:28:40.267Z,22.28
2022-08-14T00:31:09.734Z,22.24
2022-08-14T00:33:39.323Z,22.22
2022-08-14T00:36:35.888Z,22.20
2022-08-14T00:39:09.451Z,22.16
2022-08-14T00:41:38.932Z,22.14
2022-08-14T00:44:07.451Z,22.09
2022-08-14T00:46:37.905Z,22.07
2022-08-14T00:49:11.681Z,22.03
2022-08-14T00:51:45.555Z,22.01
2022-08-14T00:54:21.447Z,21.96
2022-08-14T00:56:54.739Z,21.94
2022-08-14T00:59:28.394Z,21.93
2022-08-14T01:02:00.527Z,21.88
2022-08-14T01:04:38.360Z,21.83
2022-08-14T01:07:22.130Z,21.82
2022-08-14T01:10:02.462Z,21.80
2022-08-14T01:12:31.656Z,21.77
2022-08-14T01:15:02.730Z,21.74
2022-08-14T01:17:52.133Z,21.71
2022-08-14T01:20:41.124Z,21.67
2022-08-14T01:23:16.641Z,21.65
2022-08-14T01:25:51.135Z,21.62
2022-08-14T01:28:46.271Z,21.57
2022-08-14T01:31:18.415Z,21.53
2022-08-14T01:35:15.654Z,21.54
2022-08-14T01:36:39.383Z,21.53
2022-08-14T01:39:17.385Z,21.51
2022-08-14T01:41:56.337Z,21.49
2022-08-14T01:44:32.217Z,21.45
2022-08-14T01:47:21.407Z,21.40
2022-08-14T01:49:59.623Z,21.36
2022-08-14T01:52:34.011Z,21.31
2022-08-14T01:55:18.276Z,21.25
2022-08-14T01:58:00.510Z,21.18
2022-08-14T02:00:30.953Z,21.13
2022-08-14T02:03:06.703Z,21.06
2022-08-14T02:05:38.058Z,21.00
2022-08-14T02:08:09.832Z,20.95
2022-08-14T02:10:47.230Z,20.93
2022-08-14T02:13:17.557Z,20.92
2022-08-14T02:15:45.437Z,20.91
2022-08-14T02:18:18.253Z,20.90
2022-08-14T02:20:48.353Z,20.90
2022-08-14T02:23:16.455Z,20.90
2022-08-14T02:25:54.677Z,20.89
2022-08-14T02:28:57.437Z,20.87
2022-08-14T02:31:10.744Z,20.83
2022-08-14T02:33:42.504Z,20.78
2022-08-14T02:37:04.921Z,20.76
2022-08-14T02:38:59.763Z,20.70
2022-08-14T02:41:28.911Z,20.66
2022-08-14T02:44:00.928Z,20.60
2022-08-14T02:46:32.173Z,20.55
2022-08-14T02:49:06.282Z,20.47
2022-08-14T02:51:34.908Z,20.43
2022-08-14T02:54:09.887Z,20.38
2022-08-14T02:57:16.578Z,20.34
2022-08-14T02:59:33.732Z,20.31
2022-08-14T03:02:04.539Z,20.26
2022-08-14T03:04:32.878Z,20.24
2022-08-14T03:07:07.125Z,20.19
2022-08-14T03:10:25.316Z,20.14
2022-08-14T03:12:32.416Z,20.09
2022-08-14T03:15:14.047Z,20.06
2022-08-14T03:17:57.690Z,20.00
2022-08-14T03:20:30.470Z,19.97
2022-08-14T03:23:03.317Z,19.91
2022-08-14T03:25:37.388Z,19.85
2022-08-14T03:28:14.555Z,19.79
2022-08-14T03:30:59.838Z,19.73
2022-08-14T03:33:28.091Z,19.69
2022-08-14T03:37:39.003Z,19.65
2022-08-14T03:39:15.411Z,19.60
2022-08-14T03:41:45.793Z,19.58
2022-08-14T03:45:25.584Z,19.54
2022-08-14T03:47:00.272Z,19.51
2022-08-14T03:49:30.534Z,19.49
2022-08-14T03:52:00.883Z,19.45
2022-08-14T03:54:29.810Z,19.45
2022-08-14T03:57:02.945Z,19.43
2022-08-14T03:59:35.285Z,19.44
2022-08-14T04:02:04.788Z,19.43
2022-08-14T04:04:51.337Z,19.41
2022-08-14T04:07:18.534Z,19.42
2022-08-14T04:09:45.641Z,19.42
2022-08-14T04:12:13.317Z,19.41
2022-08-14T04:14:40.825Z,19.38
2022-08-14T04:17:10.068Z,19.37
2022-08-14T04:19:39.234Z,19.36
2022-08-14T04:22:06.462Z,19.37
2022-08-14T04:24:38.449Z,19.37
2022-08-14T04:27:11.826Z,19.37
2022-08-14T04:29:45.017Z,19.36
2022-08-14T04:33:02.075Z,19.37
2022-08-14T04:35:07.757Z,19.37
2022-08-14T04:37:56.548Z,19.37
2022-08-14T04:40:42.338Z,19.39
2022-08-14T04:43:38.275Z,19.45
2022-08-14T04:46:55.130Z,19.52
2022-08-14T04:49:07.888Z,19.59
2022-08-14T04:51:37.275Z,19.59
2022-08-14T04:54:13.636Z,19.61
2022-08-14T04:56:43.833Z,19.61
2022-08-14T04:59:12.682Z,19.62
2022-08-14T05:01:48.057Z,19.66
2022-08-14T05:04:21.150Z,19.68
2022-08-14T05:06:53.558Z,19.70
2022-08-14T05:09:24.123Z,19.75
2022-08-14T05:11:53.003Z,19.80
2022-08-14T05:14:46.952Z,19.86
2022-08-14T05:17:12.066Z,19.95
2022-08-14T05:19:44.805Z,20.03
2022-08-14T05:22:27.272Z,20.19
2022-08-14T05:24:54.828Z,20.34
2022-08-14T05:27:22.708Z,20.50
2022-08-14T05:29:53.781Z,20.76
2022-08-14T05:32:27.513Z,21.67
2022-08-14T05:35:00.271Z,23.79
2022-08-14T05:37:30.143Z,25.52
2022-08-14T05:39:59.443Z,26.80
2022-08-14T05:42:32.306Z,27.78
2022-08-14T05:45:03.970Z,28.59
2022-08-14T05:47:39.036Z,29.19
2022-08-14T05:50:18.502Z,29.63
2022-08-14T05:52:51.094Z,29.32
2022-08-14T05:55:22.023Z,27.49
2022-08-14T05:58:02.375Z,25.71
2022-08-14T06:00:39.706Z,24.57
2022-08-14T06:03:11.519Z,23.85
2022-08-14T06:05:39.338Z,23.39
2022-08-14T06:08:36.152Z,23.02
2022-08-14T06:11:10.073Z,22.80
2022-08-14T06:13:44.951Z,22.67
2022-08-14T06:16:18.061Z,22.59
2022-08-14T06:18:48.764Z,22.52
2022-08-14T06:21:23.987Z,22.46
2022-08-14T06:23:51.793Z,22.45
2022-08-14T06:26:20.624Z,22.48
2022-08-14T06:28:52.276Z,22.56
2022-08-14T06:31:22.716Z,22.62
2022-08-14T06:35:11.738Z,22.71
2022-08-14T06:36:39.294Z,22.80
2022-08-14T06:39:10.326Z,22.87
2022-08-14T06:41:59.429Z,22.94
2022-08-14T06:44:32.197Z,23.05
2022-08-14T06:47:02.914Z,23.11
2022-08-14T06:49:31.017Z,23.18
2022-08-14T06:52:07.761Z,23.26
2022-08-14T06:54:35.687Z,23.37
2022-08-14T06:57:02.828Z,23.47
2022-08-14T06:59:30.632Z,23.57
2022-08-14T07:02:19.340Z,23.65
2022-08-14T07:05:06.179Z,23.76
2022-08-14T07:07:39.437Z,23.92
2022-08-14T07:10:16.815Z,24.01
2022-08-14T07:13:01.919Z,24.11
2022-08-14T07:15:34.129Z,24.26
2022-08-14T07:18:09.439Z,24.41
2022-08-14T07:20:38.335Z,24.50
2022-08-14T07:23:10.983Z,24.60
2022-08-14T07:25:48.659Z,24.69
2022-08-14T07:28:25.499Z,24.81
2022-08-14T07:31:04.688Z,24.96
2022-08-14T07:33:50.666Z,25.08
2022-08-14T07:36:27.715Z,25.19
2022-08-14T07:38:59.696Z,25.30
2022-08-14T07:41:33.472Z,25.41
2022-08-14T07:44:32.586Z,25.53
2022-08-14T07:46:49.920Z,25.66
2022-08-14T07:49:18.319Z,25.78
2022-08-14T07:51:49.317Z,25.92
2022-08-14T07:54:23.572Z,26.11
2022-08-14T07:57:00.732Z,26.23
2022-08-14T07:59:42.366Z,26.35
2022-08-14T08:02:17.277Z,26.37
2022-08-14T08:04:54.088Z,26.38
2022-08-14T08:07:29.501Z,26.44
2022-08-14T08:10:02.114Z,26.53
2022-08-14T08:12:31.165Z,26.57
2022-08-14T08:15:02.510Z,26.58
2022-08-14T08:17:38.804Z,26.67
2022-08-14T08:20:11.636Z,26.77
2022-08-14T08:22:48.241Z,26.89
2022-08-14T08:25:18.944Z,27.09
2022-08-14T08:28:08.022Z,27.15
2022-08-14T08:30:49.246Z,27.19
2022-08-14T08:33:19.829Z,27.28
2022-08-14T08:35:50.688Z,27.38
2022-08-14T08:39:17.792Z,27.51
2022-08-14T08:41:11.363Z,27.65
2022-08-14T08:43:46.783Z,27.79
2022-08-14T08:46:23.929Z,27.93
2022-08-14T08:51:34.390Z,28.08
2022-08-14T08:54:15.125Z,28.26
2022-08-14T08:56:53.866Z,28.29
2022-08-14T08:59:34.272Z,28.27
2022-08-14T09:02:10.316Z,28.29
2022-08-14T09:04:53.642Z,28.41
2022-08-14T09:07:27.790Z,28.53
2022-08-14T09:09:59.060Z,28.62
2022-08-14T09:12:32.172Z,28.81
2022-08-14T09:15:11.306Z,28.91
2022-08-14T09:17:42.801Z,28.92
2022-08-14T09:20:12.694Z,29.08
2022-08-14T09:22:42.704Z,29.04
2022-08-14T09:25:19.578Z,29.21
2022-08-14T09:27:47.428Z,29.31
2022-08-14T09:30:32.918Z,29.44
2022-08-14T09:33:12.549Z,29.59
2022-08-14T09:36:49.831Z,29.71
2022-08-14T09:39:23.240Z,29.83
2022-08-14T09:42:20.472Z,29.88
2022-08-14T09:45:12.904Z,29.98
2022-08-14T09:48:00.470Z,30.05
2022-08-14T09:50:49.219Z,30.08
2022-08-14T09:54:18.977Z,30.24
2022-08-14T09:56:59.497Z,30.13
2022-08-14T09:59:28.324Z,30.23
2022-08-14T10:01:59.721Z,30.38
2022-08-14T10:04:35.783Z,30.48
2022-08-14T10:07:08.472Z,30.54
2022-08-14T10:09:57.566Z,30.52
2022-08-14T10:12:46.066Z,30.59
2022-08-14T10:15:23.201Z,30.72
2022-08-14T10:18:08.038Z,30.94
2022-08-14T10:20:45.923Z,31.08
2022-08-14T10:23:23.243Z,31.21
2022-08-14T10:25:57.803Z,31.29
2022-08-14T10:28:51.488Z,31.32
2022-08-14T10:31:25.510Z,31.48
2022-08-14T10:34:13.109Z,31.56
2022-08-14T10:36:44.995Z,31.56
2022-08-14T10:39:19.613Z,31.56
2022-08-14T10:41:53.990Z,31.64
2022-08-14T10:44:29.874Z,31.81
2022-08-14T10:47:40.604Z,31.99
2022-08-14T10:50:01.156Z,32.14
2022-08-14T10:52:33.843Z,32.12
2022-08-14T10:55:19.304Z,32.14
2022-08-14T10:57:52.422Z,32.13
2022-08-14T11:00:35.021Z,32.18
2022-08-14T11:03:09.720Z,32.27
2022-08-14T11:05:54.927Z,32.39
2022-08-14T11:08:33.908Z,32.47
2022-08-14T11:11:05.601Z,32.63
2022-08-14T11:13:33.835Z,32.75
2022-08-14T11:16:02.598Z,32.69
2022-08-14T11:18:36.144Z,32.61
2022-08-14T11:21:09.621Z,32.76
2022-08-14T11:23:43.758Z,32.89
2022-08-14T11:26:14.423Z,32.91
2022-08-14T11:28:48.367Z,33.03
2022-08-14T11:31:35.548Z,33.22
2022-08-14T11:34:06.282Z,33.40
2022-08-14T11:37:09.695Z,33.55
2022-08-14T11:39:45.340Z,33.65
2022-08-14T11:42:56.576Z,33.72
2022-08-14T11:45:17.116Z,33.82
2022-08-14T11:48:10.750Z,33.91
2022-08-14T11:50:37.873Z,34.01
2022-08-14T11:53:19.953Z,33.68
2022-08-14T11:55:50.419Z,33.54
2022-08-14T11:58:33.543Z,33.59
2022-08-14T12:01:06.571Z,33.55
2022-08-14T12:03:52.058Z,33.25
2022-08-14T12:06:29.593Z,32.81
2022-08-14T12:09:03.460Z,32.45
2022-08-14T12:11:44.202Z,32.56
2022-08-14T12:14:30.509Z,32.61
2022-08-14T12:17:11.823Z,32.77
2022-08-14T12:19:56.680Z,33.10
2022-08-14T12:22:43.392Z,33.20
2022-08-14T12:25:24.834Z,33.19
2022-08-14T12:27:59.089Z,33.35
2022-08-14T12:30:43.191Z,33.57
2022-08-14T12:33:30.941Z,33.80
2022-08-14T12:36:07.253Z,33.86
2022-08-14T12:38:45.645Z,33.88
2022-08-14T12:41:21.151Z,33.81
2022-08-14T12:43:59.714Z,33.83
2022-08-14T12:46:30.874Z,33.95
2022-08-14T12:49:06.459Z,33.99
2022-08-14T12:51:33.589Z,33.81
2022-08-14T12:54:28.719Z,33.76
2022-08-14T12:57:19.505Z,34.10
2022-08-14T12:59:49.608Z,34.31
2022-08-14T13:02:26.351Z,34.34
2022-08-14T13:04:56.785Z,34.46
2022-08-14T13:07:32.027Z,34.61
2022-08-14T13:10:12.951Z,34.73
2022-08-14T13:13:12.583Z,34.82
2022-08-14T13:15:40.872Z,34.91
2022-08-14T13:18:12.278Z,34.85
2022-08-14T13:20:51.333Z,34.91
2022-08-14T13:23:28.556Z,34.99
2022-08-14T13:26:01.016Z,35.18
2022-08-14T13:28:32.713Z,35.20
2022-08-14T13:31:11.159Z,35.27
2022-08-14T13:33:40.913Z,35.46
2022-08-14T13:36:10.136Z,35.51
2022-08-14T13:38:53.239Z,35.46
2022-08-14T13:41:31.571Z,35.65
2022-08-14T13:44:04.356Z,35.38
2022-08-14T13:46:32.658Z,35.25
2022-08-14T13:49:00.145Z,35.29
2022-08-14T13:51:38.201Z,35.07
2022-08-14T13:54:10.803Z,35.02
2022-08-14T13:56:41.955Z,34.89
2022-08-14T13:59:10.718Z,34.59
2022-08-14T14:01:42.718Z,34.63
2022-08-14T14:04:19.888Z,34.73
2022-08-14T14:06:51.374Z,34.88
2022-08-14T14:09:32.233Z,35.08
2022-08-14T14:12:00.741Z,35.12
2022-08-14T14:14:29.707Z,34.92
2022-08-14T14:17:15.771Z,34.88
2022-08-14T14:19:46.607Z,34.79
2022-08-14T14:23:00.648Z,34.58
2022-08-14T14:25:03.347Z,34.34
2022-08-14T14:27:41.446Z,34.18
2022-08-14T14:30:15.130Z,34.26
2022-08-14T14:33:05.396Z,34.43
2022-08-14T14:35:39.851Z,34.72
2022-08-14T14:38:13.239Z,34.97
2022-08-14T14:40:54.630Z,35.28
2022-08-14T14:43:29.154Z,35.42
2022-08-14T14:45:57.814Z,35.43
2022-08-14T14:48:28.699Z,35.47
2022-08-14T14:51:01.395Z,35.60
2022-08-14T14:53:39.173Z,35.73
2022-08-14T14:56:51.076Z,35.72
2022-08-14T14:58:57.743Z,35.62
2022-08-14T15:01:25.993Z,35.49
2022-08-14T15:03:55.401Z,35.42
2022-08-14T15:06:30.237Z,35.52
2022-08-14T15:09:00.872Z,35.55
2022-08-14T15:11:30.309Z,35.59
2022-08-14T15:13:58.136Z,35.63
2022-08-14T15:16:28.884Z,35.56
2022-08-14T15:18:57.018Z,35.50
2022-08-14T15:21:24.910Z,35.20
2022-08-14T15:23:53.135Z,34.99
2022-08-14T15:26:24.264Z,34.71
2022-08-14T15:29:06.517Z,34.56
2022-08-14T15:31:36.514Z,34.46
2022-08-14T15:34:45.654Z,34.40
2022-08-14T15:37:04.783Z,34.33
2022-08-14T15:39:35.756Z,34.30
2022-08-14T15:42:16.169Z,34.28
2022-08-14T15:44:58.573Z,34.27
2022-08-14T15:47:33.090Z,34.19
2022-08-14T15:50:04.389Z,34.15
2022-08-14T15:52:35.648Z,34.18
2022-08-14T15:55:14.570Z,34.15
2022-08-14T15:58:01.712Z,34.14
2022-08-14T16:00:55.102Z,34.03
2022-08-14T16:03:27.482Z,33.94
2022-08-14T16:06:15.683Z,33.88
2022-08-14T16:08:50.301Z,33.81
2022-08-14T16:11:28.847Z,33.78
2022-08-14T16:14:00.913Z,33.73
2022-08-14T16:16:34.690Z,33.75
2022-08-14T16:19:21.160Z,33.68
2022-08-14T16:22:01.683Z,33.63
2022-08-14T16:25:02.193Z,33.62
2022-08-14T16:27:34.133Z,33.63
2022-08-14T16:30:12.265Z,33.62
2022-08-14T16:32:56.608Z,33.62
2022-08-14T16:35:42.467Z,33.63
2022-08-14T16:38:46.062Z,33.59
2022-08-14T16:41:28.462Z,33.49
2022-08-14T16:44:04.606Z,33.44
2022-08-14T16:46:44.440Z,33.47
2022-08-14T16:49:16.362Z,33.50
2022-08-14T16:51:46.347Z,33.62
2022-08-14T16:54:33.833Z,33.86
2022-08-14T16:57:23.740Z,33.99
2022-08-14T16:59:58.949Z,34.07
2022-08-14T17:02:39.814Z,34.18
2022-08-14T17:05:20.821Z,34.11
2022-08-14T17:08:32.282Z,34.04
2022-08-14T17:11:04.863Z,34.03
2022-08-14T17:13:58.755Z,33.94
2022-08-14T17:16:28.636Z,33.80
2022-08-14T17:19:01.626Z,33.64
2022-08-14T17:21:38.109Z,33.50
2022-08-14T17:24:57.534Z,33.29
2022-08-14T17:27:00.026Z,33.08
2022-08-14T17:29:54.571Z,32.93
2022-08-14T17:32:29.576Z,32.74
2022-08-14T17:35:16.377Z,32.56
2022-08-14T17:37:48.404Z,32.43
2022-08-14T17:40:30.726Z,32.27
2022-08-14T17:43:01.964Z,32.14
2022-08-14T17:45:41.267Z,32.03
2022-08-14T17:49:10.745Z,31.94
2022-08-14T17:51:23.892Z,31.81
2022-08-14T17:54:02.323Z,31.70
2022-08-14T17:56:33.040Z,31.58
2022-08-14T17:59:06.227Z,31.44
2022-08-14T18:01:46.402Z,31.29
2022-08-14T18:04:24.662Z,31.15
2022-08-14T18:07:08.947Z,31.02
2022-08-14T18:09:57.439Z,30.87
2022-08-14T18:12:32.870Z,30.71
2022-08-14T18:15:18.473Z,30.60
2022-08-14T18:17:52.703Z,30.49
2022-08-14T18:21:40.826Z,30.38
2022-08-14T18:23:14.004Z,30.26
2022-08-14T18:25:50.403Z,30.16
2022-08-14T18:28:48.578Z,30.05
2022-08-14T18:31:43.416Z,29.94
2022-08-14T18:34:32.424Z,29.82
2022-08-14T18:37:13.862Z,29.67
2022-08-14T18:39:51.712Z,29.53
2022-08-14T18:42:41.195Z,29.36
2022-08-14T18:45:29.355Z,29.23
2022-08-14T18:48:16.860Z,29.10
2022-08-14T18:50:52.347Z,28.99
2022-08-14T18:53:25.472Z,28.87
2022-08-14T18:56:10.024Z,28.73
2022-08-14T18:58:58.572Z,28.62
2022-08-14T19:01:29.799Z,28.51
2022-08-14T19:04:00.763Z,28.43
2022-08-14T19:06:42.135Z,28.33
2022-08-14T19:09:53.696Z,28.24
2022-08-14T19:12:53.084Z,28.14
2022-08-14T19:15:36.095Z,28.02
2022-08-14T19:18:28.694Z,27.94
2022-08-14T19:21:12.978Z,27.84
2022-08-14T19:23:44.163Z,27.76
2022-08-14T19:26:34.136Z,27.67
2022-08-14T19:29:37.754Z,27.57
2022-08-14T19:32:36.861Z,27.45
2022-08-14T19:35:55.939Z,27.34
2022-08-14T19:38:57.437Z,27.24
2022-08-14T19:41:37.387Z,27.19
2022-08-14T19:44:12.410Z,27.15
2022-08-14T19:47:01.755Z,27.11
2022-08-14T19:50:24.626Z,27.03
2022-08-14T19:52:29.933Z,26.95
2022-08-14T19:54:58.667Z,26.90
2022-08-14T19:57:29.787Z,26.84
2022-08-14T20:00:02.025Z,26.79
2022-08-14T20:02:48.897Z,26.72
2022-08-14T20:05:18.478Z,26.66
2022-08-14T20:07:58.911Z,26.58
2022-08-14T20:11:03.176Z,26.50
2022-08-14T20:13:29.314Z,26.41
2022-08-14T20:16:11.791Z,26.33
2022-08-14T20:18:50.257Z,26.26
2022-08-14T20:21:19.954Z,26.19
2022-08-14T20:23:49.567Z,26.14
2022-08-14T20:26:30.989Z,26.08
2022-08-14T20:29:04.861Z,26.02
2022-08-14T20:31:37.207Z,25.95
2022-08-14T20:34:18.789Z,25.89
2022-08-14T20:37:11.584Z,25.85
2022-08-14T20:39:43.732Z,25.79
2022-08-14T20:42:35.498Z,25.69
2022-08-14T20:45:20.071Z,25.66
2022-08-14T20:48:07.127Z,25.60
2022-08-14T20:50:36.375Z,25.55
2022-08-14T20:53:33.437Z,25.53
2022-08-14T20:56:28.333Z,25.51
2022-08-14T20:58:57.563Z,25.48
2022-08-14T21:01:24.518Z,25.47
2022-08-14T21:04:04.982Z,25.45
2022-08-14T21:07:23.397Z,25.43
2022-08-14T21:10:03.062Z,25.41
2022-08-14T21:12:34.303Z,25.40
2022-08-14T21:15:11.227Z,25.38
2022-08-14T21:17:41.641Z,25.33
2022-08-14T21:20:26.525Z,25.31
2022-08-14T21:23:01.254Z,25.30
2022-08-14T21:25:31.984Z,25.24
2022-08-14T21:28:05.583Z,25.20
2022-08-14T21:30:51.317Z,25.18
2022-08-14T21:33:22.705Z,25.11
2022-08-14T21:35:56.876Z,25.08
2022-08-14T21:38:34.127Z,25.06
2022-08-14T21:41:41.791Z,25.05
2022-08-14T21:44:17.973Z,24.99
2022-08-14T21:46:56.462Z,24.95
2022-08-14T21:49:37.561Z,24.91
2022-08-14T21:52:50.532Z,24.87
2022-08-14T21:55:09.611Z,24.84
2022-08-14T21:57:56.701Z,24.81
2022-08-14T22:00:42.241Z,24.81
2022-08-14T22:03:19.113Z,24.78
2022-08-14T22:05:55.996Z,24.78
2022-08-14T22:08:26.897Z,24.79
2022-08-14T22:10:56.577Z,24.78
2022-08-14T22:13:32.384Z,24.81
2022-08-14T22:16:02.118Z,24.80
2022-08-14T22:18:30.360Z,24.81
2022-08-14T22:20:59.127Z,24.81
2022-08-14T22:23:27.208Z,24.78
2022-08-14T22:25:55.406Z,24.75
2022-08-14T22:28:33.194Z,24.74
2022-08-14T22:31:10.312Z,24.71
2022-08-14T22:33:40.384Z,24.68
2022-08-14T22:36:34.325Z,24.68
2022-08-14T22:39:11.173Z,24.64
2022-08-14T22:41:43.297Z,24.59
2022-08-14T22:44:16.682Z,24.54
2022-08-14T22:46:45.302Z,24.49
2022-08-14T22:50:28.769Z,24.46
2022-08-14T22:52:32.133Z,24.41
2022-08-14T22:54:56.142Z,24.38
2022-08-14T22:57:37.404Z,24.34
2022-08-14T23:00:25.313Z,24.31
2022-08-14T23:02:58.156Z,24.31
2022-08-14T23:05:39.619Z,24.31
2022-08-14T23:08:58.490Z,24.29
2022-08-14T23:10:59.652Z,24.26
2022-08-14T23:13:26.795Z,24.24
2022-08-14T23:15:59.464Z,24.22
2022-08-14T23:18:29.426Z,24.20
2022-08-14T23:20:58.263Z,24.15
2022-08-14T23:23:25.649Z,24.14
2022-08-14T23:25:58.989Z,24.11
2022-08-14T23:28:34.705Z,24.07
2022-08-14T23:31:34.377Z,24.01
2022-08-14T23:34:06.671Z,23.99
2022-08-14T23:36:52.678Z,23.94
2022-08-14T23:39:33.163Z,23.88
2022-08-14T23:42:09.422Z,23.82
2022-08-14T23:44:39.183Z,23.75
2022-08-14T23:47:12.210Z,23.68
2022-08-14T23:50:01.242Z,23.62
2022-08-14T23:52:50.904Z,23.61
2022-08-14T23:55:33.352Z,23.56
2022-08-14T23:58:00.955Z,23.55
